createdAt,value
2018-04-15T00:01:56.754Z,7.50
2018-04-15T00:04:22.925Z,6.17
2018-04-15T00:06:49.087Z,6.00
2018-04-15T00:09:15.282Z,6.73
2018-04-15T00:11:42.543Z,6.60
2018-04-15T00:14:08.738Z,6.07
2018-04-15T00:16:36.026Z,5.90
2018-04-15T00:19:02.223Z,5.73
2018-04-15T00:21:28.419Z,5.90
2018-04-15T00:23:54.623Z,5.57
2018-04-15T00:26:20.787Z,5.27
2018-04-15T00:28:46.971Z,5.10
2018-04-15T00:31:13.167Z,4.77
2018-04-15T00:33:39.351Z,6.43
2018-04-15T00:36:06.710Z,5.60
2018-04-15T00:38:34.593Z,5.23
2018-04-15T00:41:00.770Z,5.40
2018-04-15T00:43:26.943Z,5.37
2018-04-15T00:45:53.131Z,5.00
2018-04-15T00:48:19.308Z,4.20
2018-04-15T00:50:47.217Z,4.90
2018-04-15T00:53:13.383Z,4.53
2018-04-15T00:55:39.580Z,5.50
2018-04-15T00:58:06.865Z,5.27
2018-04-15T01:00:33.026Z,4.30
2018-04-15T01:03:00.686Z,4.23
2018-04-15T01:05:27.958Z,4.47
2018-04-15T01:07:54.127Z,4.17
2018-04-15T01:10:21.410Z,4.70
2018-04-15T01:12:47.582Z,5.07
2018-04-15T01:15:14.873Z,4.60
2018-04-15T01:17:41.055Z,4.90
2018-04-15T01:20:07.246Z,4.03
2018-04-15T01:22:33.456Z,4.20
2018-04-15T01:25:00.735Z,4.30
2018-04-15T01:27:27.078Z,4.83
2018-04-15T01:29:53.266Z,4.07
2018-04-15T01:32:19.508Z,4.13
2018-04-15T01:34:45.699Z,4.30
2018-04-15T01:37:11.861Z,3.80
2018-04-15T01:39:39.162Z,3.83
2018-04-15T01:42:05.331Z,3.83
2018-04-15T01:44:32.622Z,4.33
2018-04-15T01:46:58.783Z,4.43
2018-04-15T01:49:26.046Z,4.17
2018-04-15T01:51:52.262Z,4.20
2018-04-15T01:54:18.434Z,3.77
2018-04-15T01:56:45.737Z,3.90
2018-04-15T01:59:11.890Z,4.10
2018-04-15T02:01:38.074Z,3.50
2018-04-15T02:04:04.231Z,3.73
2018-04-15T02:06:30.417Z,3.03
2018-04-15T02:08:56.599Z,4.10
2018-04-15T02:11:22.766Z,3.40
2018-04-15T02:13:48.966Z,3.80
2018-04-15T02:16:16.273Z,3.40
2018-04-15T02:18:42.474Z,4.03
2018-04-15T02:21:08.636Z,3.73
2018-04-15T02:23:35.921Z,3.60
2018-04-15T02:26:02.098Z,3.00
2018-04-15T02:28:28.255Z,3.97
2018-04-15T02:30:54.427Z,3.90
2018-04-15T02:33:20.599Z,3.60
2018-04-15T02:35:46.780Z,3.53
2018-04-15T02:38:12.970Z,3.63
2018-04-15T02:40:39.150Z,4.27
2018-04-15T02:43:06.438Z,3.73
2018-04-15T02:45:32.648Z,4.53
2018-04-15T02:47:58.803Z,4.33
2018-04-15T02:50:24.970Z,4.37
2018-04-15T02:52:51.147Z,4.37
2018-04-15T02:55:18.414Z,4.20
2018-04-15T02:57:44.783Z,3.87
2018-04-15T03:00:12.069Z,4.43
2018-04-15T03:02:38.272Z,5.03
2018-04-15T03:05:04.438Z,4.10
2018-04-15T03:07:30.635Z,4.40
2018-04-15T03:09:56.782Z,4.47
2018-04-15T03:12:24.053Z,4.83
2018-04-15T03:14:50.258Z,5.27
2018-04-15T03:17:16.423Z,4.33
2018-04-15T03:19:42.701Z,4.43
2018-04-15T03:22:08.884Z,4.70
2018-04-15T03:24:36.178Z,5.73
2018-04-15T03:27:02.358Z,4.60
2018-04-15T03:29:28.685Z,4.63
2018-04-15T03:31:54.863Z,5.07
2018-04-15T03:34:22.135Z,5.47
2018-04-15T03:36:48.334Z,5.63
2018-04-15T03:39:14.513Z,5.00
2018-04-15T03:41:41.815Z,4.47
2018-04-15T03:44:07.975Z,5.47
2018-04-15T03:46:35.261Z,4.77
2018-04-15T03:49:01.439Z,4.87
2018-04-15T03:51:27.614Z,5.13
2018-04-15T03:53:53.792Z,5.10
2018-04-15T03:56:19.963Z,5.60
2018-04-15T03:58:47.266Z,4.57
2018-04-15T04:01:13.449Z,4.53
2018-04-15T04:03:39.610Z,4.13
2018-04-15T04:06:05.799Z,4.40
2018-04-15T04:08:31.992Z,4.33
2018-04-15T04:10:58.198Z,3.97
2018-04-15T04:13:24.390Z,4.40
2018-04-15T04:15:51.719Z,4.20
2018-04-15T04:18:31.368Z,3.90
2018-04-15T04:21:09.865Z,3.93
2018-04-15T04:23:49.067Z,4.23
2018-04-15T04:26:16.360Z,3.40
2018-04-15T04:28:42.525Z,3.00
2018-04-15T04:31:10.496Z,3.23
2018-04-15T04:33:36.675Z,2.70
2018-04-15T04:36:02.860Z,2.40
2018-04-15T04:38:29.034Z,2.60
2018-04-15T04:40:55.236Z,2.10
2018-04-15T04:43:21.401Z,2.70
2018-04-15T04:45:47.586Z,2.33
2018-04-15T04:48:13.762Z,1.90
2018-04-15T04:50:39.944Z,2.17
2018-04-15T04:53:10.981Z,1.90
2018-04-15T04:55:39.521Z,2.10
2018-04-15T04:58:08.213Z,1.97
2018-04-15T05:00:37.302Z,1.57
2018-04-15T05:03:06.252Z,1.53
2018-04-15T05:05:32.483Z,1.30
2018-04-15T05:07:58.638Z,1.63
2018-04-15T05:10:24.847Z,1.30
2018-04-15T05:12:51.009Z,1.33
2018-04-15T05:15:17.315Z,1.47
2018-04-15T05:17:43.486Z,1.70
2018-04-15T05:20:09.662Z,2.10
2018-04-15T05:22:35.877Z,2.97
2018-04-15T05:25:02.063Z,2.90
2018-04-15T05:27:28.268Z,1.90
2018-04-15T05:29:54.461Z,2.27
2018-04-15T05:32:20.650Z,1.30
2018-04-15T05:34:47.940Z,1.83
2018-04-15T05:37:14.118Z,1.77
2018-04-15T05:39:40.279Z,1.80
2018-04-15T05:42:06.441Z,2.33
2018-04-15T05:44:34.400Z,2.20
2018-04-15T05:47:00.575Z,2.23
2018-04-15T05:49:26.755Z,2.23
2018-04-15T05:51:52.950Z,2.40
2018-04-15T05:54:19.302Z,2.20
2018-04-15T05:56:45.472Z,3.00
2018-04-15T05:59:11.645Z,2.90
2018-04-15T06:01:37.846Z,4.13
2018-04-15T06:04:04.006Z,5.90
2018-04-15T06:06:30.194Z,5.37
2018-04-15T06:08:57.475Z,4.30
2018-04-15T06:11:23.675Z,3.93
2018-04-15T06:13:49.944Z,4.03
2018-04-15T06:16:16.131Z,3.87
2018-04-15T06:18:42.376Z,3.43
2018-04-15T06:21:08.667Z,3.30
2018-04-15T06:23:34.962Z,3.23
2018-04-15T06:26:01.222Z,3.27
2018-04-15T06:28:28.559Z,2.63
2018-04-15T06:30:54.941Z,3.07
2018-04-15T06:33:21.268Z,2.73
2018-04-15T06:35:47.462Z,2.63
2018-04-15T06:38:13.645Z,1.80
2018-04-15T06:40:41.646Z,1.90
2018-04-15T06:43:07.829Z,2.23
2018-04-15T06:45:34.067Z,2.40
2018-04-15T06:48:00.226Z,2.10
2018-04-15T06:50:26.402Z,2.47
2018-04-15T06:52:52.593Z,2.87
2018-04-15T06:55:18.783Z,3.07
2018-04-15T06:57:44.955Z,2.13
2018-04-15T07:00:11.152Z,2.77
2018-04-15T07:02:37.325Z,2.27
2018-04-15T07:05:03.799Z,3.62
2018-04-15T07:07:30.125Z,2.70
2018-04-15T07:09:56.421Z,3.50
2018-04-15T07:12:23.028Z,3.33
2018-04-15T07:14:49.260Z,2.70
2018-04-15T07:17:15.507Z,4.90
2018-04-15T07:19:42.815Z,3.87
2018-04-15T07:22:09.023Z,2.40
2018-04-15T07:24:35.210Z,1.77
2018-04-15T07:27:01.393Z,2.03
2018-04-15T07:29:28.678Z,5.13
2018-04-15T07:31:54.990Z,6.30
2018-04-15T07:34:21.215Z,3.67
2018-04-15T07:36:47.425Z,2.47
2018-04-15T07:39:13.650Z,2.27
2018-04-15T07:41:39.909Z,2.00
2018-04-15T07:44:06.175Z,1.40
2018-04-15T07:46:32.462Z,2.58
2018-04-15T07:48:58.699Z,1.87
2018-04-15T07:51:25.835Z,1.95
2018-04-15T07:53:52.014Z,1.73
2018-04-15T07:56:18.361Z,2.03
2018-04-15T07:58:44.600Z,1.67
2018-04-15T08:01:10.786Z,2.05
2018-04-15T08:03:37.229Z,2.53
2018-04-15T08:06:03.442Z,1.50
2018-04-15T08:08:30.838Z,1.87
2018-04-15T08:10:58.223Z,1.80
2018-04-15T08:13:24.420Z,1.10
2018-04-15T08:15:50.578Z,1.20
2018-04-15T08:18:17.900Z,1.80
2018-04-15T08:20:44.077Z,1.40
2018-04-15T08:23:10.289Z,1.20
2018-04-15T08:25:36.767Z,0.98
2018-04-15T08:28:04.268Z,1.20
2018-04-15T08:30:30.503Z,1.10
2018-04-15T08:32:57.614Z,1.37
2018-04-15T08:35:25.590Z,1.37
2018-04-15T08:37:52.242Z,1.00
2018-04-15T08:40:19.211Z,1.00
2018-04-15T08:42:45.505Z,1.80
2018-04-15T08:45:11.985Z,1.10
2018-04-15T08:47:39.232Z,1.00
2018-04-15T08:50:06.629Z,0.77
2018-04-15T08:52:33.002Z,0.73
2018-04-15T08:55:00.747Z,1.33
2018-04-15T08:57:28.778Z,0.95
2018-04-15T08:59:55.254Z,1.05
2018-04-15T09:02:21.490Z,1.35
2018-04-15T09:04:47.966Z,1.30
2018-04-15T09:07:14.242Z,1.33
2018-04-15T09:09:40.914Z,1.37
2018-04-15T09:12:07.421Z,1.12
2018-04-15T09:14:33.693Z,1.40
2018-04-15T09:17:00.247Z,1.27
2018-04-15T09:19:26.437Z,0.98
2018-04-15T09:21:52.852Z,0.88
2018-04-15T09:24:20.076Z,5.35
2018-04-15T09:26:46.558Z,5.32
2018-04-15T09:29:12.954Z,3.65
2018-04-15T09:31:40.160Z,14.00
2018-04-15T09:34:08.260Z,3.65
2018-04-15T09:36:34.437Z,3.72
2018-04-15T09:39:00.638Z,3.30
2018-04-15T09:41:27.592Z,6.43
2018-04-15T09:43:53.844Z,4.45
2018-04-15T09:46:20.280Z,4.87
2018-04-15T09:48:46.500Z,7.00
2018-04-15T09:51:12.685Z,25.12
2018-04-15T09:53:38.902Z,9.30
2018-04-15T09:56:05.171Z,14.02
2018-04-15T09:58:31.354Z,11.45
2018-04-15T10:01:02.416Z,4.75
2018-04-15T10:03:30.666Z,10.50
2018-04-15T10:05:56.878Z,10.95
2018-04-15T10:08:23.128Z,11.02
2018-04-15T10:10:49.778Z,16.15
2018-04-15T10:13:16.010Z,7.30
2018-04-15T10:15:42.196Z,10.48
2018-04-15T10:18:08.392Z,9.70
2018-04-15T10:20:35.426Z,7.50
2018-04-15T10:23:01.680Z,8.43
2018-04-15T10:25:27.852Z,8.05
2018-04-15T10:27:54.803Z,3.45
2018-04-15T10:30:21.002Z,2.85
2018-04-15T10:32:47.179Z,3.17
2018-04-15T10:35:13.447Z,11.15
2018-04-15T10:37:39.654Z,3.35
2018-04-15T10:40:05.854Z,8.90
2018-04-15T10:42:33.749Z,6.12
2018-04-15T10:45:00.103Z,4.25
2018-04-15T10:47:27.018Z,3.58
2018-04-15T10:49:53.182Z,4.10
2018-04-15T10:52:19.378Z,3.85
2018-04-15T10:54:47.331Z,2.70
2018-04-15T10:57:13.777Z,2.70
2018-04-15T10:59:42.813Z,2.65
2018-04-15T11:02:09.029Z,2.78
2018-04-15T11:04:35.340Z,2.95
2018-04-15T11:07:01.521Z,2.30
2018-04-15T11:09:27.744Z,3.08
2018-04-15T11:11:54.077Z,2.50
2018-04-15T11:14:20.355Z,1.92
2018-04-15T11:16:46.534Z,2.00
2018-04-15T11:19:12.710Z,2.50
2018-04-15T11:21:38.909Z,2.45
2018-04-15T11:24:05.066Z,1.98
2018-04-15T11:26:32.054Z,2.55
2018-04-15T11:28:58.270Z,2.25
2018-04-15T11:31:24.444Z,2.17
2018-04-15T11:33:50.625Z,1.98
2018-04-15T11:36:17.586Z,1.62
2018-04-15T11:38:44.301Z,1.70
2018-04-15T11:41:10.502Z,1.55
2018-04-15T11:43:37.562Z,1.20
2018-04-15T11:46:03.873Z,1.08
2018-04-15T11:48:30.414Z,1.50
2018-04-15T11:50:56.648Z,7.90
2018-04-15T11:53:22.876Z,13.20
2018-04-15T11:55:49.045Z,16.90
2018-04-15T11:58:15.282Z,8.63
2018-04-15T12:00:41.459Z,4.07
2018-04-15T12:03:07.651Z,40.55
2018-04-15T12:05:33.900Z,18.98
2018-04-15T12:08:00.094Z,11.98
2018-04-15T12:10:26.305Z,7.50
2018-04-15T12:12:52.494Z,6.22
2018-04-15T12:15:19.417Z,1.42
2018-04-15T12:17:46.387Z,1.12
2018-04-15T12:20:12.556Z,1.23
2018-04-15T12:22:38.946Z,0.80
2018-04-15T12:25:05.147Z,0.77
2018-04-15T12:27:31.360Z,0.40
2018-04-15T12:29:57.555Z,0.40
2018-04-15T12:32:23.728Z,0.40
2018-04-15T12:34:50.667Z,0.32
2018-04-15T12:37:16.855Z,0.40
2018-04-15T12:39:43.077Z,0.70
2018-04-15T12:42:09.393Z,0.60
2018-04-15T12:44:35.614Z,0.62
2018-04-15T12:47:01.811Z,0.50
2018-04-15T12:49:27.971Z,0.20
2018-04-15T12:51:54.896Z,0.62
2018-04-15T12:54:21.808Z,0.57
2018-04-15T12:56:49.582Z,0.43
2018-04-15T12:59:15.793Z,0.60
2018-04-15T13:01:42.107Z,1.10
2018-04-15T13:04:11.511Z,0.40
2018-04-15T13:06:38.004Z,1.10
2018-04-15T13:09:05.491Z,0.60
2018-04-15T13:11:31.775Z,0.57
2018-04-15T13:13:58.735Z,0.88
2018-04-15T13:16:27.898Z,0.60
2018-04-15T13:18:54.417Z,0.65
2018-04-15T13:21:22.242Z,0.60
2018-04-15T13:23:48.470Z,0.40
2018-04-15T13:26:15.454Z,0.55
2018-04-15T13:28:41.680Z,0.70
2018-04-15T13:31:07.882Z,0.32
2018-04-15T13:33:34.547Z,0.45
2018-04-15T13:36:02.655Z,0.50
2018-04-15T13:38:29.098Z,0.32
2018-04-15T13:40:58.219Z,0.57
2018-04-15T13:43:26.501Z,0.70
2018-04-15T13:45:54.950Z,5.20
2018-04-15T13:48:21.720Z,0.73
2018-04-15T13:50:48.075Z,0.37
2018-04-15T13:53:15.095Z,0.30
2018-04-15T13:55:41.243Z,0.30
2018-04-15T13:58:07.727Z,1.67
2018-04-15T14:00:34.367Z,0.50
2018-04-15T14:03:00.568Z,0.40
2018-04-15T14:05:27.515Z,0.40
2018-04-15T14:07:54.616Z,0.40
2018-04-15T14:10:20.827Z,0.30
2018-04-15T14:12:47.023Z,0.35
2018-04-15T14:15:13.262Z,0.50
2018-04-15T14:17:40.747Z,0.35
2018-04-15T14:20:07.493Z,0.65
2018-04-15T14:22:34.506Z,2.40
2018-04-15T14:25:00.721Z,3.30
2018-04-15T14:27:26.969Z,2.45
2018-04-15T14:29:53.150Z,0.52
2018-04-15T14:32:19.829Z,0.50
2018-04-15T14:34:47.087Z,1.02
2018-04-15T14:37:13.478Z,0.60
2018-04-15T14:39:39.945Z,0.65
2018-04-15T14:42:06.451Z,0.70
2018-04-15T14:44:32.992Z,0.75
2018-04-15T14:46:59.465Z,0.62
2018-04-15T14:49:25.711Z,0.30
2018-04-15T14:51:53.136Z,0.43
2018-04-15T14:54:20.295Z,0.80
2018-04-15T14:56:46.517Z,0.57
2018-04-15T14:59:13.395Z,0.45
2018-04-15T15:01:39.892Z,0.30
2018-04-15T15:04:06.331Z,0.40
2018-04-15T15:06:33.558Z,0.40
2018-04-15T15:09:00.899Z,0.47
2018-04-15T15:11:27.364Z,0.22
2018-04-15T15:13:53.606Z,0.15
2018-04-15T15:16:19.809Z,0.20
2018-04-15T15:18:46.085Z,0.37
2018-04-15T15:21:13.312Z,0.30
2018-04-15T15:23:39.548Z,0.50
2018-04-15T15:26:06.503Z,0.28
2018-04-15T15:28:33.024Z,0.50
2018-04-15T15:30:59.404Z,0.20
2018-04-15T15:33:25.611Z,0.30
2018-04-15T15:35:52.053Z,0.28
2018-04-15T15:38:18.387Z,0.32
2018-04-15T15:40:45.558Z,0.30
2018-04-15T15:43:12.118Z,0.30
2018-04-15T15:45:38.575Z,0.20
2018-04-15T15:48:04.901Z,0.65
2018-04-15T15:50:31.102Z,0.22
2018-04-15T15:52:57.640Z,0.30
2018-04-15T15:55:23.911Z,0.52
2018-04-15T15:57:50.135Z,0.98
2018-04-15T16:00:17.085Z,1.50
2018-04-15T16:02:43.373Z,2.00
2018-04-15T16:05:09.922Z,0.55
2018-04-15T16:07:36.122Z,0.47
2018-04-15T16:10:03.655Z,1.05
2018-04-15T16:12:30.117Z,0.50
2018-04-15T16:14:56.616Z,0.40
2018-04-15T16:17:23.125Z,2.53
2018-04-15T16:19:49.545Z,0.37
2018-04-15T16:22:16.049Z,2.00
2018-04-15T16:24:42.451Z,0.90
2018-04-15T16:27:09.507Z,0.45
2018-04-15T16:29:35.982Z,0.50
2018-04-15T16:32:02.534Z,0.45
2018-04-15T16:34:30.201Z,0.60
2018-04-15T16:36:56.441Z,0.40
2018-04-15T16:39:22.750Z,0.30
2018-04-15T16:41:49.151Z,0.35
2018-04-15T16:44:15.374Z,0.22
2018-04-15T16:46:41.558Z,0.40
2018-04-15T16:49:08.490Z,0.50
2018-04-15T16:51:35.051Z,1.05
2018-04-15T16:54:02.246Z,0.60
2018-04-15T16:56:29.178Z,0.70
2018-04-15T16:58:56.311Z,0.47
2018-04-15T17:01:23.864Z,0.50
2018-04-15T17:03:50.118Z,0.30
2018-04-15T17:06:16.465Z,0.30
2018-04-15T17:08:42.647Z,0.62
2018-04-15T17:11:08.842Z,0.43
2018-04-15T17:13:35.242Z,0.47
2018-04-15T17:16:03.805Z,0.37
2018-04-15T17:18:30.204Z,0.47
2018-04-15T17:20:56.414Z,0.32
2018-04-15T17:23:22.657Z,0.40
2018-04-15T17:25:49.119Z,0.50
2018-04-15T17:28:15.794Z,0.75
2018-04-15T17:30:42.329Z,0.52
2018-04-15T17:33:08.760Z,0.25
2018-04-15T17:35:35.229Z,0.50
2018-04-15T17:38:01.790Z,0.40
2018-04-15T17:40:28.111Z,0.47
2018-04-15T17:42:54.343Z,0.55
2018-04-15T17:45:21.606Z,0.68
2018-04-15T17:47:48.154Z,0.45
2018-04-15T17:50:15.825Z,0.35
2018-04-15T17:52:42.456Z,0.88
2018-04-15T17:55:08.888Z,0.47
2018-04-15T17:57:35.871Z,0.60
2018-04-15T18:00:03.063Z,0.52
2018-04-15T18:02:29.696Z,0.52
2018-04-15T18:04:56.949Z,0.50
2018-04-15T18:07:24.183Z,0.50
2018-04-15T18:09:50.618Z,0.50
2018-04-15T18:12:17.898Z,0.40
2018-04-15T18:14:44.082Z,0.47
2018-04-15T18:17:10.335Z,0.40
2018-04-15T18:19:36.511Z,0.70
2018-04-15T18:22:02.763Z,0.55
2018-04-15T18:24:30.036Z,0.25
2018-04-15T18:26:56.249Z,0.50
2018-04-15T18:29:22.410Z,0.95
2018-04-15T18:31:48.625Z,0.35
2018-04-15T18:34:14.782Z,0.40
2018-04-15T18:36:40.971Z,0.20
2018-04-15T18:39:07.136Z,0.50
2018-04-15T18:41:33.304Z,0.50
2018-04-15T18:43:59.506Z,1.45
2018-04-15T18:46:25.708Z,4.18
2018-04-15T18:48:51.914Z,6.95
2018-04-15T18:51:18.102Z,8.10
2018-04-15T18:53:45.419Z,8.50
2018-04-15T18:56:11.587Z,9.23
2018-04-15T18:58:37.834Z,8.23
2018-04-15T19:01:04.042Z,7.75
2018-04-15T19:03:30.230Z,5.95
2018-04-15T19:05:56.900Z,3.62
2018-04-15T19:08:23.586Z,3.45
2018-04-15T19:10:50.326Z,2.62
2018-04-15T19:13:17.135Z,2.37
2018-04-15T19:15:43.351Z,1.80
2018-04-15T19:18:09.523Z,2.47
2018-04-15T19:20:35.722Z,1.58
2018-04-15T19:23:01.902Z,1.83
2018-04-15T19:25:28.105Z,1.87
2018-04-15T19:27:54.334Z,1.60
2018-04-15T19:30:20.498Z,1.75
2018-04-15T19:32:47.799Z,1.42
2018-04-15T19:35:14.098Z,1.15
2018-04-15T19:37:40.317Z,1.23
2018-04-15T19:40:06.492Z,1.87
2018-04-15T19:42:33.806Z,1.60
2018-04-15T19:45:00.067Z,1.27
2018-04-15T19:47:27.359Z,1.60
2018-04-15T19:49:53.770Z,1.50
2018-04-15T19:52:19.955Z,1.73
2018-04-15T19:54:46.192Z,1.87
2018-04-15T19:57:13.458Z,2.08
2018-04-15T19:59:40.850Z,2.37
2018-04-15T20:02:07.098Z,2.40
2018-04-15T20:04:34.437Z,3.25
2018-04-15T20:07:00.621Z,3.30
2018-04-15T20:09:26.851Z,3.42
2018-04-15T20:11:53.037Z,3.15
2018-04-15T20:14:19.264Z,2.60
2018-04-15T20:16:45.430Z,3.37
2018-04-15T20:19:11.605Z,3.03
2018-04-15T20:21:37.935Z,3.05
2018-04-15T20:24:04.158Z,4.35
2018-04-15T20:26:31.990Z,5.15
2018-04-15T20:28:58.635Z,4.97
2018-04-15T20:31:26.539Z,5.72
2018-04-15T20:33:53.965Z,5.43
2018-04-15T20:36:20.947Z,5.90
2018-04-15T20:38:48.259Z,5.82
2018-04-15T20:41:15.047Z,6.57
2018-04-15T20:43:41.333Z,6.55
2018-04-15T20:46:07.815Z,5.93
2018-04-15T20:48:34.082Z,3.90
2018-04-15T20:51:01.366Z,3.25
2018-04-15T20:53:28.719Z,3.42
2018-04-15T20:55:57.194Z,2.37
2018-04-15T20:58:25.907Z,1.95
2018-04-15T21:00:53.670Z,1.30
2018-04-15T21:03:20.310Z,0.95
2018-04-15T21:05:48.064Z,1.10
2018-04-15T21:08:14.384Z,1.10
2018-04-15T21:10:42.489Z,1.20
2018-04-15T21:13:09.585Z,1.12
2018-04-15T21:15:37.477Z,0.70
2018-04-15T21:18:04.820Z,0.70
2018-04-15T21:20:31.166Z,0.85
2018-04-15T21:22:57.778Z,1.00
2018-04-15T21:25:24.747Z,0.90
2018-04-15T21:27:52.209Z,0.80
2018-04-15T21:30:22.699Z,0.77
2018-04-15T21:32:52.730Z,0.93
2018-04-15T21:35:19.031Z,0.77
2018-04-15T21:37:45.637Z,0.73
2018-04-15T21:40:13.502Z,0.60
2018-04-15T21:42:39.711Z,0.90
2018-04-15T21:45:06.090Z,0.77
2018-04-15T21:47:32.435Z,0.90
2018-04-15T21:49:58.736Z,0.70
2018-04-15T21:52:24.962Z,1.10
2018-04-15T21:54:51.140Z,0.70
2018-04-15T21:57:17.372Z,0.62
2018-04-15T21:59:43.567Z,0.68
2018-04-15T22:02:09.747Z,0.82
2018-04-15T22:04:36.038Z,0.60
2018-04-15T22:07:02.212Z,0.50
2018-04-15T22:09:28.432Z,0.88
2018-04-15T22:12:06.877Z,0.95
2018-04-15T22:14:33.086Z,0.77
2018-04-15T22:16:59.307Z,0.60
2018-04-15T22:19:25.486Z,1.00
2018-04-15T22:21:51.694Z,2.17
2018-04-15T22:24:18.077Z,2.08
2018-04-15T22:26:45.507Z,1.20
2018-04-15T22:29:11.701Z,1.35
2018-04-15T22:31:37.971Z,1.20
2018-04-15T22:34:04.243Z,1.58
2018-04-15T22:36:30.435Z,1.77
2018-04-15T22:38:56.606Z,2.12
2018-04-15T22:41:22.830Z,1.92
2018-04-15T22:43:49.027Z,1.23
2018-04-15T22:46:15.239Z,2.75
2018-04-15T22:48:45.261Z,2.70
2018-04-15T22:51:11.479Z,2.30
2018-04-15T22:53:37.731Z,2.75
2018-04-15T22:56:08.931Z,2.58
2018-04-15T22:58:41.199Z,2.40
2018-04-15T23:01:07.411Z,3.58
2018-04-15T23:03:33.625Z,2.25
2018-04-15T23:05:59.814Z,2.47
2018-04-15T23:08:27.715Z,2.35
2018-04-15T23:14:08.224Z,2.05
2018-04-15T23:16:34.452Z,1.75
2018-04-15T23:19:03.235Z,2.25
2018-04-15T23:21:34.314Z,1.77
2018-04-15T23:24:00.519Z,1.98
2018-04-15T23:26:27.823Z,1.77
2018-04-15T23:28:54.002Z,1.92
2018-04-15T23:31:20.184Z,1.45
2018-04-15T23:33:46.350Z,1.60
2018-04-15T23:36:12.556Z,2.50
2018-04-15T23:38:38.739Z,2.87
2018-04-15T23:41:04.927Z,3.70
2018-04-15T23:43:31.115Z,3.12
2018-04-15T23:45:57.282Z,3.33
2018-04-15T23:48:23.474Z,3.25
2018-04-15T23:50:50.764Z,2.75
2018-04-15T23:53:16.962Z,3.30
2018-04-15T23:55:43.127Z,2.97
2018-04-15T23:58:09.304Z,3.20
